Time;durP1;ratioP1;P1;durP2;ratioP2;P2;SDS_P1;SDS_P2;PMS_P1;PMS_P2;Temp;Humidity;BMP_temperature;BMP_pressure;BME280_temperature;BME280_humidity;BME280_pressure;Samples;Min_cycle;Max_cycle;Signal;HPM_P1;HPM_P2
2022/01/03 00:00:52;;;;;;;12.00;4.10;;;;;;;4.42;31.32;98547.88;5077342;28;20046;-68
2022/01/03 00:03:19;;;;;;;5.43;3.10;;;;;;;4.26;31.21;98519.59;5094197;28;20036;-68
2022/01/03 00:05:45;;;;;;;6.57;3.50;;;;;;;4.29;31.26;98560.56;5111171;28;20047;-68
2022/01/03 00:08:10;;;;;;;9.37;3.60;;;;;;;4.40;30.95;98544.56;5094212;28;20067;-68
2022/01/03 00:10:36;;;;;;;4.97;3.30;;;;;;;4.43;31.06;98547.75;5093868;28;20152;-67
2022/01/03 00:13:04;;;;;;;13.97;3.37;;;;;;;4.99;30.37;98544.91;5112095;28;20047;-68
2022/01/03 00:15:30;;;;;;;8.40;3.37;;;;;;;4.51;30.51;98531.22;5094448;28;20565;-68
2022/01/03 00:17:55;;;;;;;6.63;3.13;;;;;;;4.46;30.44;98501.94;5112171;28;20047;-68
2022/01/03 00:20:23;;;;;;;10.60;3.07;;;;;;;4.99;30.45;98537.00;5110926;28;20043;-67
2022/01/03 00:23:01;;;;;;;6.30;3.17;;;;;;;5.02;30.56;98529.66;5110790;28;20043;-68
2022/01/03 00:25:26;;;;;;;5.87;2.90;;;;;;;4.59;30.68;98513.75;5093991;28;20049;-68
2022/01/03 00:28:05;;;;;;;9.57;3.40;;;;;;;5.17;30.22;98509.72;5110874;28;20044;-68
2022/01/03 00:30:35;;;;;;;6.13;3.27;;;;;;;5.02;30.45;98513.03;5110986;28;20055;-68
2022/01/03 00:33:02;;;;;;;6.53;3.13;;;;;;;4.59;30.52;98499.78;5111040;28;20049;-69
2022/01/03 00:35:28;;;;;;;7.87;3.33;;;;;;;4.52;30.46;98494.28;5110639;28;20050;-68
2022/01/03 00:37:54;;;;;;;5.90;3.20;;;;;;;4.28;31.00;98494.00;5110380;28;20039;-69
2022/01/03 00:40:21;;;;;;;7.20;3.70;;;;;;;4.36;31.04;98491.47;5110549;28;20051;-67
2022/01/03 00:42:46;;;;;;;7.83;3.40;;;;;;;4.20;31.15;98485.19;5093618;28;20039;-67
2022/01/03 00:45:13;;;;;;;8.87;3.30;;;;;;;4.15;30.96;98483.00;5110665;28;20039;-67
2022/01/03 00:47:38;;;;;;;8.50;3.67;;;;;;;4.00;30.73;98473.97;5111682;28;20495;-67
2022/01/03 00:50:09;;;;;;;6.73;3.07;;;;;;;4.70;31.19;98462.75;5110313;28;20035;-67
2022/01/03 00:52:35;;;;;;;7.45;3.33;;;;;;;4.21;31.07;98460.59;5110724;28;20089;-67
2022/01/03 00:55:02;;;;;;;7.97;3.23;;;;;;;4.23;31.38;98453.41;5091231;28;20082;-68
2022/01/03 00:57:51;;;;;;;4.87;3.57;;;;;;;4.86;30.43;98415.53;5107894;28;20043;-68
2022/01/03 01:00:17;;;;;;;6.97;3.50;;;;;;;4.48;31.11;98444.78;5108057;28;20051;-68
2022/01/03 01:02:50;;;;;;;7.40;3.53;;;;;;;4.96;30.61;98442.59;5109414;28;20514;-67
2022/01/03 01:05:18;;;;;;;8.93;3.60;;;;;;;4.73;30.80;98433.53;5091485;28;20049;-68
2022/01/03 01:07:46;;;;;;;6.07;3.53;;;;;;;4.66;30.71;98417.53;5108377;28;20048;-68
2022/01/03 01:10:11;;;;;;;7.70;3.23;;;;;;;4.31;30.71;98414.88;5091092;28;20109;-68
2022/01/03 01:12:38;;;;;;;5.40;3.40;;;;;;;4.16;30.85;98432.13;5110790;28;20509;-67
2022/01/03 01:15:04;;;;;;;4.37;2.90;;;;;;;3.98;30.52;98368.22;5093630;28;20051;-67
2022/01/03 01:17:31;;;;;;;10.87;4.13;;;;;;;4.28;30.88;98409.09;5076501;28;20040;-68
2022/01/03 01:19:57;;;;;;;6.90;3.60;;;;;;;4.21;30.64;98423.81;5076067;28;20104;-69
2022/01/03 01:22:23;;;;;;;6.07;3.10;;;;;;;4.11;30.86;98404.63;5093205;28;20150;-67
2022/01/03 01:27:57;;;;;;;8.27;3.67;;;;;;;4.02;30.97;98387.13;5031542;28;20087;-67
2022/01/03 01:30:26;;;;;;;5.07;3.47;;;;;;;4.35;31.17;98386.50;5031964;28;20053;-68
2022/01/03 01:33:08;;;;;;;5.45;3.17;;;;;;;4.73;30.91;98378.31;5069957;28;20140;-67
2022/01/03 01:35:42;;;;;;;8.40;3.80;;;;;;;4.59;31.10;98384.09;5093178;28;20058;-67
2022/01/03 01:38:15;;;;;;;17.97;4.10;;;;;;;4.46;31.02;98386.28;5092597;28;20039;-68
2022/01/03 01:40:50;;;;;;;8.13;3.70;;;;;;;4.59;30.92;98376.22;5109704;28;20035;-68
2022/01/03 01:43:36;;;;;;;9.03;3.80;;;;;;;4.62;30.87;98370.66;5075998;28;20109;-68
2022/01/03 01:46:07;;;;;;;7.83;3.97;;;;;;;4.22;31.39;98375.53;5092983;28;20138;-68
2022/01/03 01:48:36;;;;;;;4.70;3.80;;;;;;;4.05;31.54;98340.38;5093061;28;20074;-69
2022/01/03 01:51:06;;;;;;;7.57;3.80;;;;;;;4.07;31.80;98367.34;5109784;28;20044;-70
2022/01/03 01:53:38;;;;;;;6.50;3.40;;;;;;;4.11;31.81;98365.22;5092770;28;20143;-69
2022/01/03 01:56:14;;;;;;;6.40;3.83;;;;;;;4.34;31.42;98369.06;5092855;28;20105;-68
2022/01/03 01:59:06;;;;;;;5.50;3.57;;;;;;;4.52;31.42;98352.31;5093167;28;20035;-67
2022/01/03 02:01:47;;;;;;;6.20;3.70;;;;;;;4.34;31.37;98346.25;5075894;28;20047;-68
2022/01/03 02:04:37;;;;;;;8.27;3.50;;;;;;;4.06;31.73;98352.53;5109821;28;20522;-67
2022/01/03 02:07:25;;;;;;;9.67;4.53;;;;;;;4.36;31.54;98336.41;5109278;28;20051;-66
2022/01/03 02:10:11;;;;;;;8.37;4.03;;;;;;;4.43;31.32;98334.00;5092289;28;20427;-67
2022/01/03 02:12:41;;;;;;;11.43;3.70;;;;;;;3.86;31.83;98314.25;5092998;28;20062;-67
2022/01/03 02:15:11;;;;;;;6.10;3.40;;;;;;;3.94;31.65;98309.06;5109602;28;20502;-67
2022/01/03 02:17:40;;;;;;;11.38;3.65;;;;;;;3.73;32.01;98333.94;5109771;28;20044;-67
2022/01/03 02:20:11;;;;;;;7.18;3.60;;;;;;;3.73;31.95;98305.06;5076007;28;20499;-69
2022/01/03 02:22:38;;;;;;;7.87;3.90;;;;;;;3.59;32.25;98324.78;5092634;28;20057;-69
2022/01/03 02:25:08;;;;;;;7.27;3.53;;;;;;;3.69;32.07;98315.03;5092824;28;20620;-68
2022/01/03 02:27:35;;;;;;;7.50;4.07;;;;;;;3.72;32.09;98322.63;5108972;28;20419;-67
2022/01/03 02:30:03;;;;;;;8.47;3.70;;;;;;;3.67;32.28;98313.53;5108965;28;20559;-68
2022/01/03 02:32:30;;;;;;;7.60;3.43;;;;;;;3.64;32.05;98298.91;5075268;28;20035;-69
2022/01/03 02:34:56;;;;;;;8.67;3.90;;;;;;;3.31;32.60;98296.88;5108422;28;20539;-68
2022/01/03 02:37:27;;;;;;;6.67;3.57;;;;;;;3.37;32.08;98288.41;5112790;28;20066;-68
2022/01/03 02:39:54;;;;;;;6.67;3.03;;;;;;;3.52;32.40;98296.63;5095842;28;20047;-68
2022/01/03 02:42:23;;;;;;;6.20;3.77;;;;;;;3.04;32.35;98260.97;5111817;28;20131;-68
2022/01/03 02:45:06;;;;;;;7.22;3.55;;;;;;;4.24;31.66;98287.72;5079502;28;20042;-67
2022/01/03 02:47:32;;;;;;;5.37;2.97;;;;;;;3.29;32.13;98267.34;5113034;28;20040;-67
2022/01/03 02:49:58;;;;;;;5.50;3.10;;;;;;;3.33;32.26;98268.69;5112605;28;20499;-67
2022/01/03 02:52:24;;;;;;;9.07;3.60;;;;;;;3.26;32.42;98281.56;5078811;28;20482;-68
2022/01/03 02:54:51;;;;;;;6.13;3.23;;;;;;;3.30;32.37;98246.22;5112451;28;20130;-68
2022/01/03 02:57:23;;;;;;;8.77;3.23;;;;;;;3.52;32.33;98265.97;5112740;28;20047;-66
2022/01/03 02:59:56;;;;;;;6.03;3.37;;;;;;;4.07;31.93;98253.56;5112654;28;20568;-68
2022/01/03 03:02:24;;;;;;;6.17;2.90;;;;;;;3.75;32.23;98269.84;5095525;28;20566;-69
2022/01/03 03:04:55;;;;;;;5.13;3.20;;;;;;;3.80;32.16;98251.81;5078772;28;20488;-68
2022/01/03 03:07:25;;;;;;;5.57;3.10;;;;;;;3.81;32.15;98253.50;5112877;28;20085;-68
2022/01/03 03:09:51;;;;;;;10.23;3.80;;;;;;;3.16;32.55;98249.31;5094767;28;20209;-68
2022/01/03 03:12:20;;;;;;;7.17;3.03;;;;;;;3.46;32.44;98230.63;5095393;28;20071;-68
2022/01/03 03:14:46;;;;;;;5.87;3.40;;;;;;;3.07;32.81;98237.09;5112060;28;20046;-67
2022/01/03 03:17:12;;;;;;;5.30;3.30;;;;;;;3.14;32.80;98238.16;5095653;28;20052;-68
2022/01/03 03:19:57;;;;;;;6.77;3.43;;;;;;;4.10;32.19;98219.94;5112147;28;20054;-67
2022/01/03 03:22:25;;;;;;;3.93;2.90;;;;;;;3.79;32.28;98244.09;5112285;28;20039;-67
2022/01/03 03:25:03;;;;;;;4.20;3.10;;;;;;;4.03;31.98;98236.44;5112414;28;20048;-68
2022/01/03 03:27:29;;;;;;;4.53;3.13;;;;;;;3.57;32.17;98234.03;5095996;28;20567;-67
2022/01/03 03:29:56;;;;;;;5.87;3.10;;;;;;;3.76;31.62;98239.97;5112037;28;20098;-67
2022/01/03 03:32:22;;;;;;;8.33;3.73;;;;;;;3.69;31.67;98244.16;5112212;28;20048;-67
2022/01/03 03:34:49;;;;;;;7.63;3.23;;;;;;;3.85;32.16;98223.31;5094680;28;20047;-68
2022/01/03 03:37:15;;;;;;;11.17;3.90;;;;;;;4.08;31.77;98231.56;5094975;28;20067;-68
2022/01/03 03:39:44;;;;;;;13.63;3.50;;;;;;;3.55;31.77;98186.13;5095027;28;20154;-68
2022/01/03 03:42:11;;;;;;;10.57;4.13;;;;;;;3.83;32.05;98219.19;5111679;28;20043;-67
2022/01/03 03:44:38;;;;;;;5.90;3.23;;;;;;;3.93;31.90;98209.44;5111393;28;20122;-76
2022/01/03 03:47:05;;;;;;;7.60;4.07;;;;;;;3.87;31.68;98186.41;5076937;28;20051;-67
2022/01/03 03:49:32;;;;;;;6.77;3.77;;;;;;;4.13;31.58;98201.25;5094484;28;20040;-67
2022/01/03 03:51:59;;;;;;;9.63;3.80;;;;;;;4.07;31.15;98203.63;5094033;28;20351;-68
2022/01/03 03:54:25;;;;;;;6.63;3.50;;;;;;;4.00;31.34;98200.78;5111098;28;20471;-69
2022/01/03 03:56:50;;;;;;;9.53;3.67;;;;;;;3.99;31.39;98208.81;5094153;28;20122;-69
2022/01/03 03:59:16;;;;;;;7.07;3.47;;;;;;;3.40;31.72;98176.13;5111113;28;20042;-69
2022/01/03 04:01:42;;;;;;;6.60;3.47;;;;;;;3.78;31.71;98201.28;5094146;28;20040;-69
2022/01/03 04:04:08;;;;;;;10.83;3.83;;;;;;;3.79;32.18;98187.16;5112303;28;20036;-69
2022/01/03 04:06:34;;;;;;;11.77;3.90;;;;;;;3.82;31.61;98146.63;5093730;28;20047;-70
2022/01/03 04:09:01;;;;;;;7.23;3.67;;;;;;;4.24;31.29;98173.88;5093824;28;20059;-70
2022/01/03 04:11:31;;;;;;;6.63;4.27;;;;;;;4.17;31.41;98164.94;5093949;28;20051;-70
2022/01/03 04:13:59;;;;;;;8.27;4.15;;;;;;;3.92;31.64;98147.38;5094096;28;20041;-68
2022/01/03 04:16:25;;;;;;;9.07;4.43;;;;;;;4.01;31.47;98185.88;5093872;28;20135;-68
2022/01/03 04:18:51;;;;;;;11.80;4.07;;;;;;;3.89;31.55;98177.38;5111663;28;20043;-68
2022/01/03 04:21:19;;;;;;;8.57;4.10;;;;;;;3.94;31.93;98163.78;5060582;28;20035;-68
2022/01/03 04:23:45;;;;;;;9.17;4.07;;;;;;;3.62;31.80;98158.28;5093816;28;20047;-68
2022/01/03 04:26:11;;;;;;;8.30;4.23;;;;;;;3.83;32.01;98175.38;5111510;28;20502;-69
2022/01/03 04:28:38;;;;;;;8.27;4.03;;;;;;;3.76;32.01;98168.25;5110275;28;20035;-69
2022/01/03 04:31:05;;;;;;;10.33;4.07;;;;;;;3.63;32.30;98159.94;5111011;28;20051;-70
2022/01/03 04:33:32;;;;;;;11.50;4.27;;;;;;;3.99;31.88;98156.28;5093400;28;20126;-67
2022/01/03 04:35:58;;;;;;;8.77;5.00;;;;;;;3.98;31.71;98144.16;5111481;28;20090;-67
2022/01/03 04:38:24;;;;;;;9.93;4.47;;;;;;;3.72;31.89;98143.28;5111320;28;20067;-68
2022/01/03 04:40:49;;;;;;;6.77;4.00;;;;;;;3.84;31.63;98140.28;5092930;28;20082;-68
2022/01/03 04:43:16;;;;;;;9.80;4.60;;;;;;;3.82;31.71;98141.38;5108803;28;20050;-68
2022/01/03 04:45:42;;;;;;;16.67;3.93;;;;;;;3.54;31.84;98118.88;5107707;28;20039;-68
2022/01/03 04:48:07;;;;;;;13.60;4.13;;;;;;;3.67;32.13;98121.91;5107595;28;20047;-67
2022/01/03 04:50:33;;;;;;;9.43;4.27;;;;;;;3.77;32.12;98114.78;5107705;28;20120;-67
2022/01/03 04:53:00;;;;;;;13.63;4.73;;;;;;;3.61;32.15;98125.13;5107893;28;20741;-67
2022/01/03 04:55:25;;;;;;;8.63;5.00;;;;;;;3.64;31.88;98127.47;5107556;28;20039;-67
2022/01/03 04:57:53;;;;;;;7.17;4.40;;;;;;;3.78;31.97;98113.81;5107410;28;20051;-70
2022/01/03 05:00:20;;;;;;;9.07;4.43;;;;;;;4.34;31.71;98114.16;5109778;28;20419;-70
2022/01/03 05:02:46;;;;;;;8.40;4.40;;;;;;;4.27;31.29;98102.63;5076297;28;20133;-70
2022/01/03 05:05:12;;;;;;;11.83;4.80;;;;;;;3.81;31.77;98071.47;5092981;28;20078;-69
2022/01/03 05:07:39;;;;;;;8.10;4.93;;;;;;;4.24;31.59;98090.66;5076064;28;20051;-69
2022/01/03 05:10:05;;;;;;;7.60;4.63;;;;;;;4.19;31.29;98081.56;5092443;28;20151;-68
2022/01/03 05:12:31;;;;;;;10.07;5.53;;;;;;;3.88;31.37;98054.13;5110772;28;20043;-68
2022/01/03 05:14:57;;;;;;;11.70;4.60;;;;;;;4.20;31.22;98078.78;5092740;28;20057;-70
2022/01/03 05:17:23;;;;;;;13.47;5.43;;;;;;;3.94;31.67;98079.75;5075833;28;20089;-69
2022/01/03 05:19:49;;;;;;;10.93;4.80;;;;;;;3.99;31.88;98069.63;5109758;28;20085;-69
2022/01/03 05:22:15;;;;;;;13.17;5.00;;;;;;;3.90;31.61;98053.00;5092801;28;20544;-68
2022/01/03 05:24:42;;;;;;;9.50;5.03;;;;;;;4.39;31.55;98085.59;5092746;28;20054;-68
2022/01/03 05:27:08;;;;;;;9.10;4.97;;;;;;;4.51;31.33;98079.94;5092050;28;20039;-68
2022/01/03 05:29:34;;;;;;;9.87;4.83;;;;;;;4.84;30.58;98083.50;5092568;28;20166;-67
2022/01/03 05:32:02;;;;;;;9.17;5.27;;;;;;;4.61;30.76;98075.34;5109135;28;20051;-67
2022/01/03 05:34:28;;;;;;;12.03;5.10;;;;;;;4.70;31.16;98073.59;5109379;28;20039;-67
2022/01/03 05:36:54;;;;;;;9.47;4.90;;;;;;;4.50;30.99;98067.78;5075425;28;20050;-68
2022/01/03 05:39:20;;;;;;;10.30;5.47;;;;;;;4.16;31.28;98053.81;5110883;28;20431;-66
2022/01/03 05:41:46;;;;;;;13.13;5.87;;;;;;;4.38;31.10;98060.31;5109416;28;20097;-67
2022/01/03 05:44:12;;;;;;;10.30;5.57;;;;;;;4.26;31.17;98061.59;5109463;28;20040;-68
2022/01/03 05:46:39;;;;;;;11.47;5.50;;;;;;;4.35;31.21;98052.75;5109413;28;20525;-68
2022/01/03 05:49:07;;;;;;;12.57;5.40;;;;;;;4.43;31.06;98068.53;5109359;28;20054;-68
2022/01/03 05:51:34;;;;;;;11.90;5.23;;;;;;;4.43;31.12;98074.63;5109149;28;20135;-68
2022/01/03 05:54:00;;;;;;;11.77;5.53;;;;;;;4.47;31.01;98072.50;5110428;28;20044;-68
2022/01/03 05:56:26;;;;;;;11.07;5.50;;;;;;;4.33;30.72;98038.94;5108970;28;20035;-66
2022/01/03 05:58:52;;;;;;;8.43;5.33;;;;;;;4.65;30.85;98054.81;5109293;28;20127;-67
2022/01/03 06:01:21;;;;;;;11.60;7.00;;;;;;;4.59;30.98;98066.81;5091876;28;20044;-68
2022/01/03 06:03:47;;;;;;;15.23;7.10;;;;;;;4.47;31.29;98056.75;5108516;28;20533;-69
2022/01/03 06:08:39;;;;;;;10.63;6.20;;;;;;;3.95;31.41;98045.47;5108628;28;20039;-72
2022/01/03 06:11:06;;;;;;;16.03;7.27;;;;;;;4.11;31.61;98045.56;5093964;28;20508;-72
2022/01/03 06:13:36;;;;;;;18.07;7.50;;;;;;;4.02;31.49;98045.66;5095874;28;20066;-69
2022/01/03 06:16:02;;;;;;;17.73;7.03;;;;;;;3.81;32.01;98032.94;5112528;28;20130;-68
2022/01/03 06:18:30;;;;;;;14.17;6.80;;;;;;;4.24;31.67;98030.22;5112445;28;20043;-68
2022/01/03 06:21:01;;;;;;;13.27;6.70;;;;;;;4.16;31.31;98029.34;5112296;28;20471;-68
2022/01/03 06:23:32;;;;;;;13.33;6.90;;;;;;;3.91;31.54;97996.03;5112189;28;20118;-68
2022/01/03 06:25:58;;;;;;;19.17;6.53;;;;;;;4.26;31.54;98015.09;5112482;28;20562;-67
2022/01/03 06:28:37;;;;;;;11.50;5.97;;;;;;;4.63;31.22;98017.34;5080238;28;20051;-68
2022/01/03 06:31:05;;;;;;;10.87;6.23;;;;;;;4.63;31.07;97981.38;5112171;28;20071;-67
2022/01/03 06:33:31;;;;;;;12.13;6.60;;;;;;;4.58;30.82;98011.78;5112524;28;20035;-66
2022/01/03 06:35:57;;;;;;;11.37;6.20;;;;;;;4.80;30.75;98008.53;5095395;28;20109;-66
2022/01/03 06:38:23;;;;;;;12.20;6.37;;;;;;;4.40;31.15;98003.16;5111920;28;20495;-66
2022/01/03 06:40:48;;;;;;;10.07;5.67;;;;;;;4.33;31.38;97981.13;5111627;28;20044;-66
2022/01/03 06:43:14;;;;;;;11.17;6.37;;;;;;;4.63;31.07;97983.16;5111759;28;20055;-66
2022/01/03 06:45:40;;;;;;;12.60;5.77;;;;;;;4.70;30.56;97982.41;5111889;28;20043;-68
2022/01/03 06:48:06;;;;;;;15.17;6.07;;;;;;;4.75;30.70;97974.03;5113113;28;20491;-70
2022/01/03 06:50:34;;;;;;;12.77;6.10;;;;;;;5.01;30.85;97983.41;5078812;28;20067;-72
2022/01/03 06:53:00;;;;;;;12.07;6.43;;;;;;;4.52;30.68;97983.50;5078136;28;20040;-67
2022/01/03 06:55:27;;;;;;;11.10;6.47;;;;;;;4.55;30.76;97965.56;5078287;28;20040;-77
2022/01/03 06:57:53;;;;;;;15.40;7.27;;;;;;;4.62;30.84;97957.88;5061966;28;20122;-75
2022/01/03 07:00:20;;;;;;;9.93;6.00;;;;;;;4.80;31.15;97969.91;5094873;28;20415;-75
2022/01/03 07:02:47;;;;;;;17.37;6.40;;;;;;;4.93;30.77;97959.75;5078146;28;20047;-71
2022/01/03 07:05:13;;;;;;;10.53;6.80;;;;;;;5.36;30.70;97958.56;5114443;28;20039;-77
2022/01/03 07:07:40;;;;;;;13.03;6.07;;;;;;;5.13;30.31;97952.34;5077929;28;20038;-74
2022/01/03 07:10:06;;;;;;;11.63;6.27;;;;;;;5.26;30.14;97957.91;5077557;28;20173;-73
2022/01/03 07:12:33;;;;;;;10.70;5.77;;;;;;;5.09;30.45;97948.38;5078091;28;20046;-78
2022/01/03 07:20:10;;;;;;;10.97;5.83;;;;;;;4.61;30.70;97941.28;5081276;28;20047;-73
2022/01/03 07:22:40;;;;;;;11.70;6.50;;;;;;;4.71;30.92;97930.59;5062240;28;20044;-75
2022/01/03 07:25:07;;;;;;;11.07;5.57;;;;;;;4.56;31.15;97927.81;5113262;28;20081;-71
2022/01/03 07:27:33;;;;;;;11.03;5.73;;;;;;;4.49;30.95;97928.63;5095296;28;20042;-71
2022/01/03 07:29:59;;;;;;;12.17;6.30;;;;;;;4.85;30.66;97935.22;5061465;28;20082;-79
2022/01/03 07:32:25;;;;;;;11.90;6.07;;;;;;;5.10;30.23;97937.69;5061622;28;20039;-78
2022/01/03 07:34:51;;;;;;;11.73;7.00;;;;;;;4.21;30.37;97806.38;5077910;28;20081;-72
2022/01/03 07:37:18;;;;;;;11.90;6.83;;;;;;;4.79;29.81;97935.88;5094655;28;20057;-73
2022/01/03 07:39:43;;;;;;;11.37;5.57;;;;;;;4.75;30.03;97945.09;5061721;28;20126;-74
2022/01/03 07:42:09;;;;;;;11.20;5.60;;;;;;;4.48;30.96;97942.72;5079598;28;20093;-76
2022/01/03 07:44:40;;;;;;;12.67;5.83;;;;;;;5.03;30.42;97951.66;5079745;28;20070;-77
2022/01/03 07:47:06;;;;;;;9.60;5.43;;;;;;;5.04;30.12;97937.53;5094811;28;20407;-80
2022/01/03 07:49:32;;;;;;;10.07;5.47;;;;;;;5.20;30.14;97950.69;5077782;28;20125;-77
2022/01/03 07:51:58;;;;;;;14.57;6.60;;;;;;;5.14;30.69;97940.81;5094980;28;20047;-76
2022/01/03 07:54:32;;;;;;;12.70;5.73;;;;;;;5.17;29.86;97916.81;5080029;28;20043;-73
2022/01/03 07:56:57;;;;;;;14.30;5.63;;;;;;;5.29;29.72;97933.88;5078076;28;20620;-72
2022/01/03 07:59:23;;;;;;;11.47;5.97;;;;;;;5.34;30.60;97923.69;5095019;28;20039;-68
2022/01/03 08:01:49;;;;;;;10.53;5.37;;;;;;;5.22;30.04;97927.66;5094119;28;20043;-70
2022/01/03 08:04:17;;;;;;;13.97;5.50;;;;;;;5.49;29.47;97923.84;5095114;28;20039;-68
2022/01/03 08:06:43;;;;;;;12.07;5.60;;;;;;;5.45;29.45;97925.16;5077588;28;20039;-69
2022/01/03 08:09:08;;;;;;;10.03;5.90;;;;;;;5.48;29.70;97914.28;5076981;28;20091;-66
2022/01/03 08:11:37;;;;;;;13.00;5.97;;;;;;;5.20;29.91;97895.41;5094348;28;20502;-69
2022/01/03 08:14:09;;;;;;;10.10;6.00;;;;;;;5.24;29.71;97894.13;5094327;28;20184;-70
2022/01/03 08:16:35;;;;;;;8.57;5.30;;;;;;;5.11;29.30;97870.13;5077384;28;20039;-68
2022/01/03 08:19:01;;;;;;;13.93;5.83;;;;;;;5.14;29.92;97886.41;5060121;28;20055;-71
2022/01/03 08:21:27;;;;;;;12.67;5.80;;;;;;;4.54;30.60;97877.19;5093848;28;20055;-67
2022/01/03 08:23:55;;;;;;;12.10;5.60;;;;;;;5.31;30.57;97875.81;5093529;28;20047;-66
2022/01/03 08:26:21;;;;;;;13.03;5.87;;;;;;;5.04;30.08;97877.03;5084539;28;20051;-68
2022/01/03 08:28:47;;;;;;;10.50;5.80;;;;;;;5.38;30.18;97877.66;5055978;28;20143;-66
2022/01/03 08:31:12;;;;;;;14.13;6.00;;;;;;;5.65;30.08;97868.50;5048523;28;20586;-66
2022/01/03 08:33:39;;;;;;;16.57;8.20;;;;;;;5.60;29.73;97840.03;5071883;28;20553;-69
2022/01/03 08:36:05;;;;;;;12.53;7.20;;;;;;;5.80;30.41;97864.16;5038619;28;20044;-69
2022/01/03 08:38:30;;;;;;;13.37;6.60;;;;;;;5.79;29.71;97852.81;5071926;28;20105;-70
2022/01/03 08:40:56;;;;;;;18.00;7.93;;;;;;;5.92;29.81;97842.56;5106498;28;20079;-73
2022/01/03 08:43:23;;;;;;;12.60;7.20;;;;;;;5.88;29.64;97867.63;5089022;28;20043;-70
2022/01/03 08:45:49;;;;;;;13.00;6.70;;;;;;;5.98;29.39;97825.25;5092178;28;20047;-72
2022/01/03 08:48:15;;;;;;;19.10;7.27;;;;;;;6.29;29.38;97850.59;5064385;28;20225;-72
2022/01/03 08:50:40;;;;;;;14.90;7.03;;;;;;;6.21;29.67;97852.47;5069194;28;20439;-73
2022/01/03 08:53:07;;;;;;;15.43;7.13;;;;;;;6.69;29.64;97844.19;5070456;28;20415;-72
2022/01/03 08:55:33;;;;;;;11.27;6.57;;;;;;;6.11;29.33;97834.22;5062287;28;20040;-73
2022/01/03 08:57:59;;;;;;;14.20;7.13;;;;;;;5.81;29.18;97828.94;5067123;28;20051;-73
2022/01/03 09:00:26;;;;;;;12.63;6.67;;;;;;;5.69;30.29;97815.31;5062443;28;20059;-71
2022/01/03 09:02:51;;;;;;;14.57;6.80;;;;;;;5.02;29.89;97823.75;5066049;28;20035;-72
2022/01/03 09:05:17;;;;;;;14.70;6.30;;;;;;;5.66;30.07;97805.13;5064115;28;20131;-72
2022/01/03 09:07:43;;;;;;;15.87;7.27;;;;;;;5.65;29.74;97800.84;5081136;28;20073;-74
2022/01/03 09:10:09;;;;;;;12.63;6.90;;;;;;;5.66;29.25;97791.97;5068874;28;20082;-73
2022/01/03 09:12:37;;;;;;;14.87;6.57;;;;;;;5.17;29.90;97791.34;5057300;28;20544;-71
2022/01/03 09:15:03;;;;;;;12.50;6.93;;;;;;;5.47;30.53;97795.03;5071268;28;20036;-71
2022/01/03 09:17:29;;;;;;;16.47;6.40;;;;;;;5.26;30.25;97786.06;5051963;28;20032;-73
2022/01/03 09:19:55;;;;;;;12.37;6.17;;;;;;;5.07;30.40;97795.16;5080158;28;20048;-73
2022/01/03 09:22:26;;;;;;;12.77;5.70;;;;;;;4.98;30.19;97781.19;5063135;28;20097;-74
2022/01/03 09:28:48;;;;;;;17.57;8.00;;;;;;;4.87;30.44;97778.09;5068824;28;20054;-74
2022/01/03 09:30:23;;;;;;;18.40;8.13;;;;;;;4.05;32.07;97769.59;5064624;28;20066;-73
2022/01/03 09:32:49;;;;;;;14.47;8.33;;;;;;;4.63;30.95;97772.84;5050938;28;20511;-73
2022/01/03 09:35:15;;;;;;;19.80;8.87;;;;;;;4.34;31.02;97770.75;5052813;28;20134;-72
2022/01/03 09:37:41;;;;;;;18.70;8.03;;;;;;;4.42;31.30;97751.53;5093546;28;20048;-72
2022/01/03 09:40:08;;;;;;;18.57;8.70;;;;;;;4.88;30.90;97708.72;5094765;28;20039;-74
2022/01/03 09:42:35;;;;;;;16.47;7.93;;;;;;;5.55;30.40;97766.00;5079165;28;20127;-72
2022/01/03 09:45:07;;;;;;;18.17;7.47;;;;;;;6.00;30.39;97750.31;5061241;28;20134;-71
2022/01/03 09:47:33;;;;;;;17.10;7.83;;;;;;;5.92;30.43;97742.44;5062878;28;20064;-71
2022/01/03 09:50:00;;;;;;;18.10;8.57;;;;;;;5.68;30.27;97760.19;5053938;28;20040;-72
2022/01/03 09:52:26;;;;;;;20.53;7.27;;;;;;;5.04;30.87;97725.25;5049131;28;20036;-73
2022/01/03 09:54:54;;;;;;;11.10;6.90;;;;;;;5.68;29.98;97750.47;5035052;28;20040;-71
2022/01/03 09:57:21;;;;;;;13.03;6.93;;;;;;;5.51;30.19;97733.13;5068843;28;20089;-72
2022/01/03 09:59:48;;;;;;;14.17;7.00;;;;;;;5.85;30.01;97730.16;5086631;28;20076;-70
2022/01/03 10:02:17;;;;;;;14.93;6.93;;;;;;;6.49;30.12;97735.75;5068714;28;20361;-71
2022/01/03 10:04:44;;;;;;;15.43;6.80;;;;;;;5.76;30.00;97732.00;5051637;28;20075;-69
2022/01/03 10:07:11;;;;;;;12.47;6.33;;;;;;;6.31;30.30;97729.97;5073881;28;20122;-71
2022/01/03 10:09:39;;;;;;;15.00;6.67;;;;;;;6.37;29.28;97734.53;5082315;28;20059;-71
2022/01/03 10:12:08;;;;;;;17.10;6.47;;;;;;;6.11;30.24;97717.44;5085332;28;20047;-73
2022/01/03 10:14:34;;;;;;;9.87;5.53;;;;;;;4.65;30.63;97728.84;5068682;28;20419;-71
2022/01/03 10:17:03;;;;;;;15.73;6.50;;;;;;;5.38;30.46;97703.09;5035551;28;20076;-72
2022/01/03 10:19:29;;;;;;;11.93;5.87;;;;;;;5.59;29.88;97725.19;5036119;28;20048;-72
2022/01/03 10:21:55;;;;;;;11.60;6.27;;;;;;;5.22;30.21;97731.13;5035083;28;20044;-70
2022/01/03 10:24:38;;;;;;;9.87;5.57;;;;;;;5.63;30.53;97694.88;5068393;28;20051;-70
2022/01/03 10:27:04;;;;;;;11.60;5.67;;;;;;;5.10;30.46;97710.63;5068560;28;20043;-71
2022/01/03 10:29:31;;;;;;;11.50;6.27;;;;;;;5.14;30.77;97731.16;5051561;28;20043;-73
2022/01/03 10:31:59;;;;;;;15.03;6.20;;;;;;;4.74;30.84;97714.69;5067979;28;20504;-71
2022/01/03 10:34:31;;;;;;;11.43;6.63;;;;;;;5.16;30.72;97715.19;5053105;28;20727;-72
2022/01/03 10:37:09;;;;;;;11.93;6.27;;;;;;;4.88;30.97;97703.47;5079232;28;20557;-73
2022/01/03 10:39:35;;;;;;;9.97;5.93;;;;;;;4.34;31.86;97702.44;5058633;28;20590;-72
2022/01/03 10:42:19;;;;;;;13.00;5.97;;;;;;;4.54;31.33;97680.06;5072691;28;20074;-74
2022/01/03 10:44:45;;;;;;;12.33;6.60;;;;;;;4.07;31.73;97625.81;5054840;28;20147;-74
2022/01/03 10:47:30;;;;;;;10.43;6.03;;;;;;;4.40;31.45;97635.25;5054860;28;20043;-75
2022/01/03 10:49:58;;;;;;;10.80;6.10;;;;;;;3.92;31.82;97625.63;5072642;28;20411;-74
2022/01/03 10:52:28;;;;;;;11.20;6.17;;;;;;;4.06;31.85;97647.81;5050488;28;20040;-74
2022/01/03 10:55:16;;;;;;;11.98;5.95;;;;;;;5.34;31.11;97676.28;5054160;28;20088;-74
2022/01/03 10:58:18;;;;;;;10.77;6.30;;;;;;;4.98;30.69;97672.53;5074530;28;20580;-73
2022/01/03 11:00:49;;;;;;;14.43;6.80;;;;;;;5.35;31.16;97683.19;5092883;28;20055;-71
2022/01/03 11:05:56;;;;;;;17.40;7.10;;;;;;;5.75;31.31;97671.59;5109279;28;20058;-75
2022/01/03 11:11:11;;;;;;;17.17;7.97;;;;;;;6.08;30.01;97673.84;5071773;28;20055;-76
2022/01/03 11:13:42;;;;;;;13.03;6.80;;;;;;;5.92;29.52;97679.22;5054922;28;20071;-75
2022/01/03 11:16:09;;;;;;;17.70;6.95;;;;;;;5.87;30.01;97671.06;5071250;28;20079;-75
2022/01/03 11:18:38;;;;;;;14.70;7.03;;;;;;;6.00;30.03;97657.25;5056569;28;20055;-74
2022/01/03 11:21:19;;;;;;;9.60;6.33;;;;;;;6.20;29.91;97655.78;5071925;28;20193;-75
2022/01/03 11:23:48;;;;;;;16.67;7.20;;;;;;;5.49;30.74;97636.91;5088553;28;20074;-74
2022/01/03 11:26:19;;;;;;;16.47;7.00;;;;;;;6.18;29.76;97669.13;5071296;28;20137;-74
2022/01/03 11:28:47;;;;;;;10.53;6.33;;;;;;;6.16;29.55;97660.59;5038019;28;20109;-73
2022/01/03 11:31:14;;;;;;;16.77;6.97;;;;;;;5.89;30.39;97644.53;5036340;28;20080;-74
2022/01/03 11:33:41;;;;;;;15.97;7.37;;;;;;;5.73;30.83;97642.00;5054642;28;20046;-75
2022/01/03 11:36:08;;;;;;;10.37;6.30;;;;;;;5.64;30.46;97643.03;5088726;28;20039;-76
2022/01/03 11:38:39;;;;;;;17.70;6.17;;;;;;;6.10;30.93;97642.03;5071142;28;20047;-74
2022/01/03 11:41:08;;;;;;;13.10;6.63;;;;;;;6.05;30.02;97645.22;5087382;28;20079;-73
2022/01/03 11:43:35;;;;;;;12.23;6.70;;;;;;;5.77;30.20;97638.81;5054511;28;20423;-73
2022/01/03 11:46:02;;;;;;;13.17;7.53;;;;;;;5.94;29.78;97647.44;5070829;28;20051;-71
2022/01/03 11:48:31;;;;;;;18.40;7.97;;;;;;;5.14;30.12;97644.34;5089221;28;20048;-73
2022/01/03 11:51:03;;;;;;;15.73;8.10;;;;;;;6.03;30.21;97638.47;5054165;28;20135;-73
2022/01/03 11:56:20;;;;;;;19.87;8.30;;;;;;;5.29;31.05;97627.81;5061366;28;20784;-75
2022/01/03 12:04:23;;;;;;;16.10;8.17;;;;;;;5.79;30.44;97647.38;5092500;28;20043;-73
2022/01/03 12:07:02;;;;;;;17.20;8.00;;;;;;;6.04;30.46;97646.19;5056262;28;20039;-72
2022/01/03 12:09:32;;;;;;;17.27;8.20;;;;;;;5.57;30.35;97579.72;5052673;28;20433;-74